Time;durP1;ratioP1;P1;durP2;ratioP2;P2;SDS_P1;SDS_P2;PMS_P1;PMS_P2;Temp;Humidity;BMP_temperature;BMP_pressure;BME280_temperature;BME280_humidity;BME280_pressure;Samples;Min_cycle;Max_cycle;Signal;HPM_P1;HPM_P2
2022/09/19 00:00:44;;;;;;;1.60;0.98;;;;;;;;;;5072468;28;20684;-75
2022/09/19 00:03:11;;;;;;;2.97;1.00;;;;;;;;;;5072005;28;20035;-75
2022/09/19 00:05:41;;;;;;;3.60;0.82;;;;;;;;;;5072414;28;20475;-75
2022/09/19 00:08:07;;;;;;;1.23;0.73;;;;;;;;;;5071330;28;20032;-75
2022/09/19 00:10:37;;;;;;;4.18;1.13;;;;;;;;;;5072237;28;20020;-75
2022/09/19 00:13:04;;;;;;;2.35;0.90;;;;;;;;;;5070598;28;20033;-76
2022/09/19 00:15:32;;;;;;;2.55;0.80;;;;;;;;;;5072017;28;20027;-75
2022/09/19 00:17:58;;;;;;;4.78;1.08;;;;;;;;;;5071122;28;20082;-74
2022/09/19 00:20:24;;;;;;;2.58;1.30;;;;;;;;;;5072032;28;20028;-71
2022/09/19 00:25:34;;;;;;;1.83;0.90;;;;;;;;;;5072332;28;20094;-71
2022/09/19 00:28:00;;;;;;;4.18;1.02;;;;;;;;;;5070825;28;20029;-75
2022/09/19 00:30:26;;;;;;;1.25;0.73;;;;;;;;;;5071986;28;20029;-74
2022/09/19 00:32:53;;;;;;;1.45;0.77;;;;;;;;;;5070547;28;20137;-75
2022/09/19 00:35:19;;;;;;;0.98;0.80;;;;;;;;;;5072423;28;20078;-72
2022/09/19 00:37:45;;;;;;;2.00;0.85;;;;;;;;;;5069519;28;20059;-73
2022/09/19 00:40:12;;;;;;;2.50;0.98;;;;;;;;;;5071697;28;20044;-74
2022/09/19 00:42:38;;;;;;;1.70;0.90;;;;;;;;;;5071240;28;20024;-75
2022/09/19 00:45:07;;;;;;;1.95;0.60;;;;;;;;;;5071464;28;20032;-74
2022/09/19 00:47:35;;;;;;;1.35;0.70;;;;;;;;;;5070440;28;20510;-74
2022/09/19 00:50:02;;;;;;;0.60;0.60;;;;;;;;;;5070203;28;20393;-74
2022/09/19 00:52:32;;;;;;;3.45;1.00;;;;;;;;;;5071386;28;20032;-75
2022/09/19 00:54:58;;;;;;;1.02;0.60;;;;;;;;;;5071747;28;20485;-75
2022/09/19 00:57:32;;;;;;;1.67;0.85;;;;;;;;;;5070321;28;20440;-73
2022/09/19 00:59:58;;;;;;;1.58;0.80;;;;;;;;;;5071278;28;20021;-74
2022/09/19 01:02:28;;;;;;;2.25;1.05;;;;;;;;;;5086969;22;20040;-72
2022/09/19 01:04:54;;;;;;;3.38;1.40;;;;;;;;;;5071067;28;20033;-72
2022/09/19 01:07:28;;;;;;;2.45;0.90;;;;;;;;;;5070598;28;20035;-72
2022/09/19 01:09:54;;;;;;;3.47;1.13;;;;;;;;;;5069744;28;20020;-72
2022/09/19 01:12:47;;;;;;;1.30;0.80;;;;;;;;;;5071185;28;20031;-72
2022/09/19 01:15:29;;;;;;;3.13;0.80;;;;;;;;;;5051409;28;20040;-72
2022/09/19 01:17:58;;;;;;;2.08;1.20;;;;;;;;;;5050493;28;20036;-71
2022/09/19 01:20:33;;;;;;;2.08;1.17;;;;;;;;;;5051000;28;20501;-72
2022/09/19 01:23:19;;;;;;;2.30;1.35;;;;;;;;;;5051110;28;20032;-72
2022/09/19 01:26:03;;;;;;;2.67;1.05;;;;;;;;;;5051127;28;20025;-72
2022/09/19 01:28:33;;;;;;;1.30;0.90;;;;;;;;;;5056514;28;20021;-75
2022/09/19 01:31:18;;;;;;;1.95;1.60;;;;;;;;;;5050704;28;20029;-72
2022/09/19 01:34:01;;;;;;;2.40;1.30;;;;;;;;;;5050928;28;20028;-73
2022/09/19 01:36:31;;;;;;;3.50;1.02;;;;;;;;;;5050843;28;20025;-72
2022/09/19 01:38:57;;;;;;;2.88;1.85;;;;;;;;;;5050077;28;20021;-73
2022/09/19 01:41:23;;;;;;;2.58;1.80;;;;;;;;;;5050489;28;20767;-73
2022/09/19 01:43:50;;;;;;;1.60;1.50;;;;;;;;;;5050870;28;20450;-73
2022/09/19 01:46:21;;;;;;;3.22;1.88;;;;;;;;;;5050780;28;20091;-72
2022/09/19 01:48:54;;;;;;;10.32;2.25;;;;;;;;;;5050080;28;20051;-72
2022/09/19 01:51:28;;;;;;;5.18;2.22;;;;;;;;;;5050658;28;20020;-72
2022/09/19 01:53:57;;;;;;;2.55;2.20;;;;;;;;;;5050746;28;20029;-72
2022/09/19 01:56:23;;;;;;;3.97;2.53;;;;;;;;;;5050667;28;20059;-72
2022/09/19 01:58:54;;;;;;;6.22;3.08;;;;;;;;;;5058421;28;20443;-72
2022/09/19 02:01:20;;;;;;;4.47;2.90;;;;;;;;;;5056769;28;20017;-72
2022/09/19 02:03:46;;;;;;;4.18;3.03;;;;;;;;;;5054595;28;20055;-72
2022/09/19 02:06:15;;;;;;;6.22;3.40;;;;;;;;;;5054493;28;20419;-72
2022/09/19 02:08:41;;;;;;;4.03;3.63;;;;;;;;;;5053955;28;20070;-72
2022/09/19 02:11:17;;;;;;;4.75;3.65;;;;;;;;;;5054475;28;20017;-72
2022/09/19 02:13:49;;;;;;;4.70;3.25;;;;;;;;;;5054492;28;20025;-72
2022/09/19 02:16:29;;;;;;;7.13;4.05;;;;;;;;;;5054397;28;20055;-72
2022/09/19 02:19:04;;;;;;;8.80;4.90;;;;;;;;;;5052552;28;20032;-72
2022/09/19 02:21:36;;;;;;;7.55;5.82;;;;;;;;;;5054640;28;20032;-72
2022/09/19 02:24:06;;;;;;;11.52;6.80;;;;;;;;;;5054182;28;20547;-72
2022/09/19 02:26:33;;;;;;;8.93;6.90;;;;;;;;;;5052697;28;20120;-73
2022/09/19 02:29:00;;;;;;;10.55;6.75;;;;;;;;;;5053311;28;20063;-72
2022/09/19 02:31:27;;;;;;;8.27;6.25;;;;;;;;;;5061028;28;20032;-72
2022/09/19 02:33:54;;;;;;;10.98;7.05;;;;;;;;;;5073800;28;20099;-72
2022/09/19 02:36:25;;;;;;;12.88;7.68;;;;;;;;;;5065945;28;20021;-72
2022/09/19 02:39:01;;;;;;;17.70;8.15;;;;;;;;;;5053308;28;20040;-72
2022/09/19 02:41:36;;;;;;;9.90;8.02;;;;;;;;;;5053543;28;20029;-72
2022/09/19 02:44:08;;;;;;;13.93;8.50;;;;;;;;;;5051258;28;20525;-72
2022/09/19 02:46:40;;;;;;;13.30;8.13;;;;;;;;;;5052678;28;20049;-72
2022/09/19 02:49:12;;;;;;;14.48;7.90;;;;;;;;;;5052369;28;20021;-72
2022/09/19 02:51:51;;;;;;;14.13;7.82;;;;;;;;;;5059508;28;20031;-72
2022/09/19 02:54:22;;;;;;;10.70;7.85;;;;;;;;;;5056721;28;20028;-72
2022/09/19 02:56:49;;;;;;;10.48;7.60;;;;;;;;;;5052145;28;20024;-72
2022/09/19 02:59:20;;;;;;;11.45;8.32;;;;;;;;;;5059868;28;20043;-73
2022/09/19 03:01:49;;;;;;;15.15;8.10;;;;;;;;;;5053540;28;20021;-73
2022/09/19 03:04:18;;;;;;;13.27;8.23;;;;;;;;;;5053416;28;20446;-73
2022/09/19 03:06:54;;;;;;;16.15;8.98;;;;;;;;;;5053618;28;20104;-73
2022/09/19 03:09:22;;;;;;;12.02;8.23;;;;;;;;;;5052539;28;20471;-73
2022/09/19 03:11:52;;;;;;;17.50;7.88;;;;;;;;;;5053580;28;20025;-74
2022/09/19 03:14:19;;;;;;;15.98;9.88;;;;;;;;;;5053613;28;20378;-73
2022/09/19 03:16:47;;;;;;;11.48;8.02;;;;;;;;;;5053411;28;20413;-73
2022/09/19 03:19:13;;;;;;;18.60;9.80;;;;;;;;;;5052401;28;20100;-73
2022/09/19 03:21:40;;;;;;;15.00;9.00;;;;;;;;;;5052054;28;20433;-73
2022/09/19 03:24:06;;;;;;;12.80;9.77;;;;;;;;;;5053131;28;20368;-73
2022/09/19 03:26:34;;;;;;;14.93;8.77;;;;;;;;;;5053232;28;20017;-73
2022/09/19 03:29:01;;;;;;;15.93;9.00;;;;;;;;;;5052405;28;20071;-73
2022/09/19 03:31:27;;;;;;;17.38;9.32;;;;;;;;;;5052968;28;20017;-73
2022/09/19 03:33:55;;;;;;;14.43;8.95;;;;;;;;;;5053472;28;20457;-73
2022/09/19 03:36:22;;;;;;;19.98;9.57;;;;;;;;;;5052887;28;20052;-72
2022/09/19 03:38:48;;;;;;;17.48;9.85;;;;;;;;;;5052394;28;20029;-74
2022/09/19 03:41:14;;;;;;;12.43;8.70;;;;;;;;;;5052812;28;20029;-73
2022/09/19 03:43:44;;;;;;;19.05;9.32;;;;;;;;;;5052644;28;20108;-74
2022/09/19 03:46:11;;;;;;;17.83;9.95;;;;;;;;;;5052540;28;20025;-73
2022/09/19 03:48:37;;;;;;;18.70;10.98;;;;;;;;;;5051155;28;20028;-73
2022/09/19 03:51:03;;;;;;;18.88;10.63;;;;;;;;;;5052793;28;20308;-73
2022/09/19 03:53:30;;;;;;;17.35;9.32;;;;;;;;;;5053186;28;20025;-73
2022/09/19 03:55:56;;;;;;;14.93;9.07;;;;;;;;;;5053088;28;20099;-73
2022/09/19 03:58:23;;;;;;;14.52;9.38;;;;;;;;;;5052874;28;20024;-73
2022/09/19 04:00:49;;;;;;;15.07;10.02;;;;;;;;;;5059103;28;20111;-73
2022/09/19 04:03:17;;;;;;;14.75;9.02;;;;;;;;;;5066099;28;20095;-73
2022/09/19 04:05:43;;;;;;;14.98;9.35;;;;;;;;;;5052735;28;20041;-73
2022/09/19 04:08:09;;;;;;;13.18;8.95;;;;;;;;;;5051340;28;20467;-73
2022/09/19 04:10:35;;;;;;;19.63;9.73;;;;;;;;;;5052536;28;20028;-73
2022/09/19 04:13:01;;;;;;;18.58;9.60;;;;;;;;;;5052123;28;20366;-73
2022/09/19 04:15:27;;;;;;;13.85;9.35;;;;;;;;;;5050752;28;20115;-73
2022/09/19 04:17:53;;;;;;;13.32;7.57;;;;;;;;;;5051247;28;20124;-75
2022/09/19 04:20:19;;;;;;;16.48;9.07;;;;;;;;;;5051396;28;20021;-73
2022/09/19 04:22:45;;;;;;;13.68;8.43;;;;;;;;;;5051863;28;20021;-73
2022/09/19 04:25:15;;;;;;;14.00;8.95;;;;;;;;;;5052015;28;20025;-74
2022/09/19 04:27:41;;;;;;;17.05;8.60;;;;;;;;;;5050877;28;20025;-74
2022/09/19 04:30:07;;;;;;;17.02;9.05;;;;;;;;;;5050444;28;20032;-73
2022/09/19 04:32:34;;;;;;;17.67;8.93;;;;;;;;;;5051615;28;20376;-73
2022/09/19 04:35:00;;;;;;;18.17;9.15;;;;;;;;;;5051756;28;20035;-73
2022/09/19 04:37:28;;;;;;;12.45;8.10;;;;;;;;;;5051216;28;20033;-74
2022/09/19 04:39:54;;;;;;;14.10;8.02;;;;;;;;;;5051769;28;20474;-73
2022/09/19 04:42:20;;;;;;;13.48;7.90;;;;;;;;;;5051567;28;20035;-72
2022/09/19 04:44:46;;;;;;;12.85;7.28;;;;;;;;;;5051474;28;20071;-73
2022/09/19 04:47:14;;;;;;;10.80;7.10;;;;;;;;;;5051066;28;20386;-72
2022/09/19 04:49:40;;;;;;;11.60;7.40;;;;;;;;;;5051204;28;20096;-73
2022/09/19 04:52:12;;;;;;;12.25;8.27;;;;;;;;;;5051429;28;20021;-73
2022/09/19 04:54:39;;;;;;;10.02;7.30;;;;;;;;;;5051341;28;20027;-73
2022/09/19 04:57:06;;;;;;;12.10;7.20;;;;;;;;;;5050840;28;20032;-72
2022/09/19 04:59:33;;;;;;;10.50;6.47;;;;;;;;;;5058953;28;20032;-73
2022/09/19 05:01:59;;;;;;;12.13;6.25;;;;;;;;;;5051355;28;20028;-73
2022/09/19 05:04:25;;;;;;;10.82;5.90;;;;;;;;;;5051143;28;20029;-73
2022/09/19 05:06:51;;;;;;;8.52;5.72;;;;;;;;;;5051419;28;20419;-74
2022/09/19 05:09:18;;;;;;;5.90;5.30;;;;;;;;;;5050008;28;20068;-73
2022/09/19 05:11:46;;;;;;;11.40;6.75;;;;;;;;;;5051050;28;20395;-73
2022/09/19 05:14:15;;;;;;;14.73;7.45;;;;;;;;;;5050988;28;20089;-73
2022/09/19 05:16:41;;;;;;;9.15;6.72;;;;;;;;;;5050926;28;20025;-73
2022/09/19 05:19:08;;;;;;;9.60;6.82;;;;;;;;;;5050511;28;20037;-73
2022/09/19 05:21:34;;;;;;;11.15;7.68;;;;;;;;;;5050654;28;20025;-73
2022/09/19 05:24:02;;;;;;;13.68;8.75;;;;;;;;;;5050662;28;20029;-74
2022/09/19 05:26:28;;;;;;;12.68;8.25;;;;;;;;;;5049668;28;20119;-73
2022/09/19 05:28:54;;;;;;;15.98;9.93;;;;;;;;;;5053689;28;20090;-73
2022/09/19 05:31:20;;;;;;;13.38;9.18;;;;;;;;;;5052049;28;20013;-73
2022/09/19 05:33:47;;;;;;;14.05;9.73;;;;;;;;;;5050744;28;20399;-73
2022/09/19 05:36:13;;;;;;;13.70;9.75;;;;;;;;;;5050542;28;20463;-73
2022/09/19 05:38:39;;;;;;;17.00;8.98;;;;;;;;;;5049715;28;20032;-73
2022/09/19 05:41:07;;;;;;;13.40;9.10;;;;;;;;;;5050712;28;20080;-73
2022/09/19 05:43:33;;;;;;;15.55;8.77;;;;;;;;;;5049205;28;20049;-72
2022/09/19 05:46:00;;;;;;;15.80;8.90;;;;;;;;;;5050234;28;20471;-72
2022/09/19 05:48:26;;;;;;;12.88;8.75;;;;;;;;;;5049938;28;20029;-73
2022/09/19 05:50:53;;;;;;;13.52;8.30;;;;;;;;;;5049239;28;20039;-74
2022/09/19 05:56:05;;;;;;;8.55;6.90;;;;;;;;;;5050819;28;20098;-74
2022/09/19 05:58:33;;;;;;;9.07;6.75;;;;;;;;;;5051848;28;20037;-74
2022/09/19 06:00:59;;;;;;;9.38;7.03;;;;;;;;;;5055517;28;20028;-73
2022/09/19 06:03:25;;;;;;;13.30;7.07;;;;;;;;;;5050459;28;20029;-74
2022/09/19 06:05:52;;;;;;;11.38;7.25;;;;;;;;;;5050200;28;20146;-71
2022/09/19 06:08:22;;;;;;;10.60;7.90;;;;;;;;;;5047300;28;20497;-74
2022/09/19 06:10:49;;;;;;;10.50;7.88;;;;;;;;;;5062547;28;20427;-74
2022/09/19 06:13:20;;;;;;;10.10;8.48;;;;;;;;;;5048907;28;20123;-73
2022/09/19 06:15:46;;;;;;;9.55;8.43;;;;;;;;;;5050334;28;20461;-73
2022/09/19 06:18:12;;;;;;;10.35;8.23;;;;;;;;;;5049154;28;20024;-72
2022/09/19 06:20:39;;;;;;;10.52;7.95;;;;;;;;;;5048321;28;20029;-72
2022/09/19 06:23:06;;;;;;;10.68;8.07;;;;;;;;;;5050046;28;20081;-73
2022/09/19 06:25:33;;;;;;;10.77;8.60;;;;;;;;;;5050643;28;20048;-73
2022/09/19 06:28:00;;;;;;;12.55;8.02;;;;;;;;;;5049907;28;20082;-72
2022/09/19 06:30:27;;;;;;;9.63;8.63;;;;;;;;;;5069207;28;20481;-73
2022/09/19 06:32:53;;;;;;;8.73;7.80;;;;;;;;;;5052828;28;20017;-73
2022/09/19 06:35:20;;;;;;;15.82;7.78;;;;;;;;;;5050492;28;20013;-73
2022/09/19 06:37:47;;;;;;;13.38;7.57;;;;;;;;;;5058365;28;20024;-74
2022/09/19 06:40:13;;;;;;;9.13;7.57;;;;;;;;;;5055052;28;20162;-73
2022/09/19 06:42:39;;;;;;;8.15;6.32;;;;;;;;;;5050257;28;20016;-73
2022/09/19 06:45:06;;;;;;;15.90;7.82;;;;;;;;;;5053934;28;20485;-73
2022/09/19 06:47:32;;;;;;;9.40;7.05;;;;;;;;;;5053792;28;20113;-74
2022/09/19 06:50:00;;;;;;;12.90;7.00;;;;;;;;;;5065669;28;20402;-73
2022/09/19 06:52:26;;;;;;;8.18;6.55;;;;;;;;;;5051792;28;20017;-72
2022/09/19 06:54:52;;;;;;;10.50;7.28;;;;;;;;;;5056145;28;20021;-73
2022/09/19 06:57:18;;;;;;;10.98;7.75;;;;;;;;;;5051025;28;20558;-73
2022/09/19 06:59:44;;;;;;;11.18;6.82;;;;;;;;;;5058975;28;20028;-73
2022/09/19 07:02:10;;;;;;;9.52;6.22;;;;;;;;;;5086242;22;20045;-80
2022/09/19 07:04:37;;;;;;;9.38;6.03;;;;;;;;;;5086847;28;20339;-81
2022/09/19 07:07:03;;;;;;;8.35;6.10;;;;;;;;;;5087319;28;20029;-80
2022/09/19 07:09:29;;;;;;;13.50;6.00;;;;;;;;;;5079996;28;20189;-81
2022/09/19 07:11:56;;;;;;;7.28;6.32;;;;;;;;;;5092028;28;20540;-81
2022/09/19 07:14:25;;;;;;;10.35;6.28;;;;;;;;;;5096075;28;20516;-82
2022/09/19 07:16:51;;;;;;;8.60;5.90;;;;;;;;;;5090549;28;20055;-80
2022/09/19 07:19:17;;;;;;;7.43;5.95;;;;;;;;;;5092380;28;20025;-82
2022/09/19 07:21:43;;;;;;;5.90;5.35;;;;;;;;;;5094978;28;20013;-81
2022/09/19 07:24:10;;;;;;;5.93;5.40;;;;;;;;;;5086479;28;20316;-82
2022/09/19 07:26:36;;;;;;;6.72;5.18;;;;;;;;;;5079265;28;20027;-80
2022/09/19 07:29:02;;;;;;;7.63;5.75;;;;;;;;;;5078016;28;20032;-81
2022/09/19 07:31:28;;;;;;;8.10;5.38;;;;;;;;;;5078234;28;20535;-79
2022/09/19 07:33:54;;;;;;;6.78;5.50;;;;;;;;;;5076096;28;20028;-80
2022/09/19 07:36:21;;;;;;;7.50;6.22;;;;;;;;;;5078349;28;20092;-80
2022/09/19 07:38:50;;;;;;;6.38;5.13;;;;;;;;;;5080317;28;20024;-80
2022/09/19 07:41:19;;;;;;;7.22;5.50;;;;;;;;;;5079633;28;20471;-80
2022/09/19 07:43:47;;;;;;;9.45;5.25;;;;;;;;;;5079841;28;20036;-81
2022/09/19 07:46:15;;;;;;;6.97;6.03;;;;;;;;;;5078340;28;20020;-81
2022/09/19 07:48:42;;;;;;;5.68;5.18;;;;;;;;;;5078484;28;20024;-81
2022/09/19 07:51:14;;;;;;;8.07;5.80;;;;;;;;;;5076653;28;20016;-81
2022/09/19 07:53:40;;;;;;;9.82;5.05;;;;;;;;;;5077584;28;20024;-81
2022/09/19 07:56:06;;;;;;;7.03;4.10;;;;;;;;;;5078301;28;20497;-82
2022/09/19 07:58:34;;;;;;;11.05;4.15;;;;;;;;;;5076987;28;20020;-81
2022/09/19 08:01:01;;;;;;;5.13;3.92;;;;;;;;;;5075776;28;20086;-80
2022/09/19 08:03:27;;;;;;;5.65;3.58;;;;;;;;;;5076272;28;20060;-81
2022/09/19 08:05:55;;;;;;;3.80;3.45;;;;;;;;;;5075632;28;20036;-80
2022/09/19 08:08:23;;;;;;;3.20;2.65;;;;;;;;;;5075427;28;20104;-78
2022/09/19 08:10:49;;;;;;;3.47;3.10;;;;;;;;;;5077037;28;20041;-78
2022/09/19 08:13:17;;;;;;;2.35;2.17;;;;;;;;;;5075984;28;20440;-80
2022/09/19 08:15:43;;;;;;;2.50;1.90;;;;;;;;;;5074864;28;20185;-79
2022/09/19 08:18:09;;;;;;;2.60;1.48;;;;;;;;;;5075110;28;20028;-80
2022/09/19 08:20:36;;;;;;;2.72;1.58;;;;;;;;;;5073772;28;20032;-81
2022/09/19 08:23:04;;;;;;;1.52;1.40;;;;;;;;;;5073066;28;20040;-80
2022/09/19 08:25:42;;;;;;;3.13;1.45;;;;;;;;;;5074257;28;20035;-78
2022/09/19 08:28:11;;;;;;;2.15;1.30;;;;;;;;;;5072480;28;20520;-80
2022/09/19 08:30:45;;;;;;;2.80;1.17;;;;;;;;;;5074324;28;20102;-80
2022/09/19 08:33:14;;;;;;;2.47;1.35;;;;;;;;;;5074327;28;20021;-78
2022/09/19 08:35:41;;;;;;;2.05;1.40;;;;;;;;;;5080145;28;20028;-80
2022/09/19 08:38:08;;;;;;;2.25;1.20;;;;;;;;;;5075999;28;20547;-81
2022/09/19 08:40:45;;;;;;;1.05;0.60;;;;;;;;;;5078086;28;20035;-81
2022/09/19 08:43:18;;;;;;;1.05;0.65;;;;;;;;;;5079228;28;20032;-79
2022/09/19 08:46:03;;;;;;;1.10;0.73;;;;;;;;;;5077355;28;20017;-82
2022/09/19 08:48:32;;;;;;;2.88;0.80;;;;;;;;;;5076383;28;20027;-80
2022/09/19 08:51:06;;;;;;;1.25;1.00;;;;;;;;;;5075558;28;20055;-81
2022/09/19 08:53:33;;;;;;;2.35;1.02;;;;;;;;;;5074910;28;20166;-79
2022/09/19 08:56:01;;;;;;;2.15;1.40;;;;;;;;;;5077406;28;20032;-79
2022/09/19 08:58:30;;;;;;;2.55;1.20;;;;;;;;;;5076804;28;20055;-80
2022/09/19 09:01:07;;;;;;;2.22;1.00;;;;;;;;;;5078374;28;20074;-80
2022/09/19 09:03:52;;;;;;;1.35;1.25;;;;;;;;;;5073095;28;20094;-81
2022/09/19 09:06:24;;;;;;;3.03;1.30;;;;;;;;;;5076487;28;20029;-80
2022/09/19 09:09:04;;;;;;;4.38;1.77;;;;;;;;;;5077958;28;20023;-81
2022/09/19 09:11:51;;;;;;;3.80;2.03;;;;;;;;;;5079339;28;20028;-81
2022/09/19 09:14:20;;;;;;;4.32;2.47;;;;;;;;;;5077145;28;20028;-79
2022/09/19 09:16:53;;;;;;;2.78;2.58;;;;;;;;;;5076862;28;20021;-80
2022/09/19 09:19:44;;;;;;;2.85;2.42;;;;;;;;;;5076183;28;20044;-81
2022/09/19 09:22:21;;;;;;;4.22;2.80;;;;;;;;;;5057146;28;20524;-80
2022/09/19 09:24:51;;;;;;;4.40;2.55;;;;;;;;;;5076910;28;20033;-81
2022/09/19 09:27:27;;;;;;;5.25;3.03;;;;;;;;;;5076497;28;20025;-79
2022/09/19 09:29:57;;;;;;;5.05;3.33;;;;;;;;;;5077389;28;20020;-79
2022/09/19 09:32:37;;;;;;;3.80;3.30;;;;;;;;;;5077014;28;20116;-81
2022/09/19 09:35:18;;;;;;;6.78;3.70;;;;;;;;;;5078766;28;20099;-79
2022/09/19 09:38:06;;;;;;;7.43;5.03;;;;;;;;;;5074322;28;20074;-82
2022/09/19 09:43:45;;;;;;;6.78;5.22;;;;;;;;;;5067101;28;20039;-82
2022/09/19 09:46:26;;;;;;;10.82;5.43;;;;;;;;;;5076032;28;20035;-80
2022/09/19 09:48:58;;;;;;;7.50;5.03;;;;;;;;;;5074160;28;20032;-80
2022/09/19 09:51:57;;;;;;;5.20;3.97;;;;;;;;;;5073458;28;20031;-78
2022/09/19 09:57:32;;;;;;;7.90;4.55;;;;;;;;;;5078649;28;20082;-79
2022/09/19 10:05:54;;;;;;;3.90;3.40;;;;;;;;;;5082727;28;20039;-80
2022/09/19 10:08:28;;;;;;;7.43;3.95;;;;;;;;;;5077713;28;20044;-80
2022/09/19 10:11:14;;;;;;;4.57;3.83;;;;;;;;;;5079189;28;20020;-78
2022/09/19 10:13:48;;;;;;;5.43;3.70;;;;;;;;;;5086109;28;20024;-77
2022/09/19 10:16:17;;;;;;;6.07;3.08;;;;;;;;;;5070882;28;20055;-78
2022/09/19 10:18:47;;;;;;;3.88;3.58;;;;;;;;;;5086951;28;20489;-77
2022/09/19 10:21:13;;;;;;;5.15;3.65;;;;;;;;;;5081956;28;20551;-78
2022/09/19 10:23:44;;;;;;;7.10;4.10;;;;;;;;;;5092680;28;20020;-79
2022/09/19 10:26:16;;;;;;;5.75;4.28;;;;;;;;;;5085969;28;20055;-79
2022/09/19 10:28:51;;;;;;;6.47;4.00;;;;;;;;;;5073028;28;20112;-78
2022/09/19 10:31:44;;;;;;;7.32;4.20;;;;;;;;;;5078782;28;20116;-78
2022/09/19 10:34:30;;;;;;;8.27;4.70;;;;;;;;;;5056761;28;20037;-79
2022/09/19 10:37:02;;;;;;;5.28;4.38;;;;;;;;;;5074139;28;20028;-78
2022/09/19 10:39:29;;;;;;;7.45;5.15;;;;;;;;;;5080266;28;20052;-78
2022/09/19 10:41:55;;;;;;;6.50;4.40;;;;;;;;;;5088452;28;20027;-78
2022/09/19 10:44:25;;;;;;;8.93;5.07;;;;;;;;;;5085953;28;20042;-79
2022/09/19 10:47:01;;;;;;;8.95;5.78;;;;;;;;;;5083689;28;20027;-79
2022/09/19 10:49:28;;;;;;;6.63;5.88;;;;;;;;;;5076760;28;20025;-78
2022/09/19 10:51:59;;;;;;;8.75;6.35;;;;;;;;;;5074438;28;20028;-76
2022/09/19 10:54:36;;;;;;;10.25;6.05;;;;;;;;;;5075236;28;20028;-77
2022/09/19 10:57:02;;;;;;;8.70;5.55;;;;;;;;;;5073019;28;20025;-78
2022/09/19 10:59:38;;;;;;;10.98;6.70;;;;;;;;;;5075111;28;20440;-80
2022/09/19 11:02:13;;;;;;;7.53;5.13;;;;;;;;;;5072173;28;20035;-78
2022/09/19 11:04:41;;;;;;;10.30;5.78;;;;;;;;;;5072615;28;20036;-77
2022/09/19 11:07:19;;;;;;;7.00;4.88;;;;;;;;;;5073333;28;20410;-76
2022/09/19 11:09:47;;;;;;;6.53;5.18;;;;;;;;;;5074354;28;20079;-76
2022/09/19 11:12:16;;;;;;;8.27;4.60;;;;;;;;;;5072874;28;20090;-75
2022/09/19 11:14:43;;;;;;;7.13;5.32;;;;;;;;;;5074565;28;20410;-76
2022/09/19 11:17:29;;;;;;;7.43;4.18;;;;;;;;;;5072416;28;20157;-78
2022/09/19 11:20:07;;;;;;;6.82;4.22;;;;;;;;;;5073922;28;20589;-78
2022/09/19 11:22:50;;;;;;;4.53;4.10;;;;;;;;;;5073231;28;20558;-78
2022/09/19 11:25:19;;;;;;;4.65;4.20;;;;;;;;;;5076919;28;20024;-79
2022/09/19 11:27:51;;;;;;;6.75;3.58;;;;;;;;;;5082554;28;20013;-77
2022/09/19 11:30:40;;;;;;;4.90;3.58;;;;;;;;;;5075716;28;20025;-78
2022/09/19 11:33:38;;;;;;;3.40;3.10;;;;;;;;;;5068761;28;20119;-78
2022/09/19 11:36:07;;;;;;;3.03;2.67;;;;;;;;;;5070570;28;20458;-77
2022/09/19 11:39:03;;;;;;;3.88;2.50;;;;;;;;;;5072820;28;20504;-76
2022/09/19 11:41:47;;;;;;;4.63;2.22;;;;;;;;;;5029701;28;20041;-76
2022/09/19 11:44:20;;;;;;;2.92;2.05;;;;;;;;;;5074161;28;20028;-79
2022/09/19 11:47:06;;;;;;;2.50;1.75;;;;;;;;;;5072219;28;20027;-78
2022/09/19 11:49:51;;;;;;;2.40;1.80;;;;;;;;;;5071500;28;20021;-75
2022/09/19 11:52:33;;;;;;;3.22;2.13;;;;;;;;;;5072208;28;20021;-77
2022/09/19 11:54:59;;;;;;;;;;;;;;;;;;5085271;28;20036;-76
2022/09/19 11:57:25;;;;;;;2.92;1.88;;;;;;;;;;5080230;28;20011;-78
2022/09/19 12:00:05;;;;;;;1.58;1.48;;;;;;;;;;5074897;28;20051;-78
2022/09/19 12:02:36;;;;;;;1.75;1.50;;;;;;;;;;5076381;28;20028;-78
2022/09/19 12:05:22;;;;;;;2.63;1.42;;;;;;;;;;5075763;28;20031;-75
2022/09/19 12:08:08;;;;;;;2.75;1.10;;;;;;;;;;5075074;28;20024;-76
2022/09/19 12:10:38;;;;;;;2.13;1.20;;;;;;;;;;5075273;28;20017;-79
2022/09/19 12:13:11;;;;;;;7.20;1.20;;;;;;;;;;5074601;28;20032;-75
2022/09/19 12:15:38;;;;;;;2.95;1.42;;;;;;;;;;5073956;28;20021;-75
2022/09/19 12:18:04;;;;;;;1.92;1.00;;;;;;;;;;5073194;28;20016;-77
2022/09/19 12:20:30;;;;;;;2.63;1.30;;;;;;;;;;5066523;28;20075;-78
2022/09/19 12:25:55;;;;;;;2.25;1.30;;;;;;;;;;5067156;28;20512;-78
2022/09/19 12:28:24;;;;;;;1.40;1.20;;;;;;;;;;5072159;28;20620;-78
2022/09/19 12:30:52;;;;;;;1.17;1.00;;;;;;;;;;5071556;28;20029;-76
2022/09/19 12:33:35;;;;;;;1.05;0.88;;;;;;;;;;5071432;28;20150;-75
2022/09/19 12:36:04;;;;;;;1.10;0.80;;;;;;;;;;5071106;28;20024;-77
2022/09/19 12:38:31;;;;;;;6.55;1.23;;;;;;;;;;5070582;28;20562;-77
2022/09/19 12:41:00;;;;;;;5.15;1.00;;;;;;;;;;5071893;28;20024;-77
2022/09/19 12:43:32;;;;;;;3.95;1.23;;;;;;;;;;5071177;28;20029;-77
2022/09/19 12:46:11;;;;;;;3.03;0.88;;;;;;;;;;5071207;28;20029;-78
2022/09/19 12:48:49;;;;;;;3.33;0.80;;;;;;;;;;5070934;28;20013;-77
2022/09/19 12:51:18;;;;;;;1.00;0.80;;;;;;;;;;5072157;28;20016;-77
2022/09/19 12:54:08;;;;;;;2.72;0.98;;;;;;;;;;5072487;28;20024;-77
2022/09/19 12:56:36;;;;;;;1.02;0.70;;;;;;;;;;5071374;28;20024;-76
2022/09/19 12:59:13;;;;;;;1.08;0.60;;;;;;;;;;5072287;28;20032;-77
2022/09/19 13:01:45;;;;;;;1.05;0.82;;;;;;;;;;5051952;28;20028;-77
2022/09/19 13:04:25;;;;;;;1.63;0.90;;;;;;;;;;5092588;22;20178;-74
2022/09/19 13:06:54;;;;;;;1.93;0.90;;;;;;;;;;5079824;28;20462;-73
2022/09/19 13:09:25;;;;;;;2.97;1.23;;;;;;;;;;5090492;28;20034;-73
2022/09/19 13:11:55;;;;;;;3.33;1.17;;;;;;;;;;5090253;28;20470;-70
2022/09/19 13:14:30;;;;;;;2.92;0.90;;;;;;;;;;5075819;28;20024;-74
2022/09/19 13:25:14;;;;;;;2.45;0.90;;;;;;;;;;5071047;28;20545;-73
2022/09/19 13:27:44;;;;;;;2.53;0.98;;;;;;;;;;5070054;28;20021;-74
2022/09/19 13:30:30;;;;;;;2.72;1.15;;;;;;;;;;5071044;28;20024;-74
2022/09/19 13:32:57;;;;;;;2.45;0.80;;;;;;;;;;5070652;28;20027;-73
2022/09/19 13:35:24;;;;;;;1.25;0.70;;;;;;;;;;5069491;28;20111;-73
2022/09/19 13:37:53;;;;;;;3.72;1.13;;;;;;;;;;5070223;28;20054;-72
2022/09/19 13:40:27;;;;;;;2.65;1.40;;;;;;;;;;5071252;28;20126;-73
2022/09/19 13:43:12;;;;;;;2.42;1.13;;;;;;;;;;5070683;28;20081;-72
2022/09/19 13:45:54;;;;;;;4.45;0.88;;;;;;;;;;5070763;28;20032;-72
2022/09/19 13:48:20;;;;;;;;;;;;;;;;;;5057517;28;20489;-71
2022/09/19 13:51:05;;;;;;;2.42;0.90;;;;;;;;;;5069463;28;19915;-73
2022/09/19 13:53:45;;;;;;;3.40;0.70;;;;;;;;;;5070649;28;20025;-72
2022/09/19 13:56:27;;;;;;;1.23;0.80;;;;;;;;;;5052584;28;20020;-73
2022/09/19 13:59:12;;;;;;;3.70;0.90;;;;;;;;;;5069966;28;20028;-72
2022/09/19 14:01:39;;;;;;;2.10;1.00;;;;;;;;;;5057547;28;20024;-73
2022/09/19 14:06:59;;;;;;;2.20;0.63;;;;;;;;;;5070280;28;20121;-71
2022/09/19 14:09:38;;;;;;;2.53;0.50;;;;;;;;;;5070183;28;20029;-73
2022/09/19 14:12:24;;;;;;;3.58;0.60;;;;;;;;;;5070464;28;20057;-73
2022/09/19 14:14:50;;;;;;;1.38;0.63;;;;;;;;;;5069206;28;20020;-73
2022/09/19 14:17:18;;;;;;;1.75;0.80;;;;;;;;;;5069460;28;20028;-73
2022/09/19 14:19:48;;;;;;;2.55;0.88;;;;;;;;;;5070017;28;20526;-73
2022/09/19 14:22:34;;;;;;;0.73;0.45;;;;;;;;;;5070788;28;20020;-73
2022/09/19 14:25:04;;;;;;;7.28;1.20;;;;;;;;;;5070416;28;20486;-73
2022/09/19 14:27:30;;;;;;;1.80;0.75;;;;;;;;;;5070118;28;20025;-73
2022/09/19 14:29:57;;;;;;;1.83;0.80;;;;;;;;;;5070247;28;20386;-73
2022/09/19 14:32:31;;;;;;;1.60;0.50;;;;;;;;;;5070544;28;20029;-71
2022/09/19 14:35:16;;;;;;;3.40;0.75;;;;;;;;;;5070275;28;20024;-72
2022/09/19 14:37:52;;;;;;;3.25;0.65;;;;;;;;;;5069487;28;20028;-74
2022/09/19 14:40:25;;;;;;;2.25;0.98;;;;;;;;;;5070375;28;20021;-73
2022/09/19 14:43:10;;;;;;;2.80;0.90;;;;;;;;;;5070055;28;21337;-74
2022/09/19 14:45:49;;;;;;;2.50;0.47;;;;;;;;;;5070608;28;20058;-72
2022/09/19 14:48:27;;;;;;;3.13;0.70;;;;;;;;;;5069421;28;20091;-74
2022/09/19 14:50:54;;;;;;;1.50;0.60;;;;;;;;;;5070132;28;20028;-73
2022/09/19 14:53:25;;;;;;;1.55;0.68;;;;;;;;;;5070353;28;20077;-73
2022/09/19 14:55:51;;;;;;;;;;;;;;;;;;5070595;28;20045;-73
2022/09/19 14:58:31;;;;;;;1.17;0.55;;;;;;;;;;5069082;28;19993;-73
2022/09/19 15:01:18;;;;;;;1.65;0.70;;;;;;;;;;5071133;28;20379;-73
2022/09/19 15:03:56;;;;;;;3.35;0.60;;;;;;;;;;5080122;28;20071;-73
2022/09/19 15:06:28;;;;;;;2.67;0.60;;;;;;;;;;5056022;28;20019;-73
2022/09/19 15:08:56;;;;;;;2.53;0.50;;;;;;;;;;5073890;28;20107;-72
2022/09/19 15:11:22;;;;;;;2.78;0.65;;;;;;;;;;5073185;28;20043;-72
2022/09/19 15:13:53;;;;;;;7.05;1.25;;;;;;;;;;5071618;28;20021;-72
2022/09/19 15:16:19;;;;;;;3.38;0.95;;;;;;;;;;5073154;28;20437;-74
2022/09/19 15:18:47;;;;;;;1.95;0.88;;;;;;;;;;5048768;28;20036;-75
2022/09/19 15:21:20;;;;;;;1.52;0.60;;;;;;;;;;5071740;28;20029;-73
2022/09/19 15:23:46;;;;;;;1.13;0.47;;;;;;;;;;5053742;28;20028;-73
2022/09/19 15:26:14;;;;;;;3.95;1.05;;;;;;;;;;5073283;28;20020;-75
2022/09/19 15:28:40;;;;;;;3.60;1.25;;;;;;;;;;5054576;28;20025;-72
2022/09/19 15:31:16;;;;;;;2.35;0.65;;;;;;;;;;5073132;28;20017;-72
2022/09/19 15:33:46;;;;;;;2.67;1.08;;;;;;;;;;5073346;28;20052;-73